Time;durP1;ratioP1;P1;durP2;ratioP2;P2;SDS_P1;SDS_P2;PMS_P1;PMS_P2;Temp;Humidity;BMP_temperature;BMP_pressure;BME280_temperature;BME280_humidity;BME280_pressure;Samples;Min_cycle;Max_cycle;Signal;HPM_P1;HPM_P2
2022/05/10 00:00:15;;;;;;;4.95;3.10;;;;;;;-140.79;100.00;63287.88;5063686;28;20033;-54
2022/05/10 00:02:41;;;;;;;4.45;3.35;;;;;;;-140.79;100.00;63287.88;5065017;28;20115;-52
2022/05/10 00:05:06;;;;;;;4.70;3.08;;;;;;;-140.79;100.00;63287.88;5028792;28;20674;-55
2022/05/10 00:07:33;;;;;;;4.70;3.42;;;;;;;-140.79;100.00;63287.88;5064840;28;20024;-54
2022/05/10 00:09:59;;;;;;;6.25;3.10;;;;;;;-140.79;100.00;63287.88;5041829;28;20037;-52
2022/05/10 00:12:24;;;;;;;3.90;3.13;;;;;;;-140.79;100.00;63287.88;5065865;28;20042;-54
2022/05/10 00:14:50;;;;;;;5.38;3.83;;;;;;;-140.79;100.00;63287.88;5063977;28;20074;-53
2022/05/10 00:17:35;;;;;;;5.32;3.47;;;;;;;-140.79;100.00;63287.88;5064508;28;20025;-52
2022/05/10 00:20:00;;;;;;;4.00;3.10;;;;;;;-140.79;100.00;63287.88;5046362;28;20035;-54
2022/05/10 00:22:26;;;;;;;5.35;3.05;;;;;;;-140.79;100.00;63287.88;5044536;28;20017;-53
2022/05/10 00:24:51;;;;;;;5.22;3.28;;;;;;;-140.79;100.00;63287.88;5065568;28;20032;-54
2022/05/10 00:27:17;;;;;;;5.35;3.00;;;;;;;-140.79;100.00;63287.88;5062019;28;20049;-55
2022/05/10 00:29:43;;;;;;;4.40;3.05;;;;;;;-140.79;100.00;63287.88;5062459;28;20490;-54
2022/05/10 00:32:09;;;;;;;4.80;3.38;;;;;;;-140.79;100.00;63287.88;5064320;28;20020;-55
2022/05/10 00:34:35;;;;;;;3.95;3.10;;;;;;;-140.79;100.00;63287.88;5046395;28;20040;-54
2022/05/10 00:37:00;;;;;;;4.93;3.30;;;;;;;-140.79;100.00;63287.88;5062407;28;20059;-52
2022/05/10 00:39:26;;;;;;;4.57;3.25;;;;;;;-140.79;100.00;63287.88;5042737;28;20502;-52
2022/05/10 00:42:02;;;;;;;4.30;2.97;;;;;;;-140.79;100.00;63287.88;5063987;28;20017;-54
2022/05/10 00:44:47;;;;;;;4.40;3.03;;;;;;;-140.79;100.00;63287.88;5063347;28;20052;-53
2022/05/10 00:47:12;;;;;;;5.15;2.65;;;;;;;-140.79;100.00;63287.88;5060338;28;20832;-53
2022/05/10 00:49:49;;;;;;;3.90;2.90;;;;;;;-140.79;100.00;63287.88;5063698;28;20020;-52
2022/05/10 00:52:29;;;;;;;5.00;2.85;;;;;;;-140.79;100.00;63287.88;5042533;28;20523;-53
2022/05/10 00:55:05;;;;;;;4.72;3.22;;;;;;;-140.79;100.00;63287.88;5020584;28;20017;-53
2022/05/10 00:57:48;;;;;;;4.72;3.08;;;;;;;-140.79;100.00;63287.88;5027251;28;20023;-52
2022/05/10 01:00:18;;;;;;;3.95;2.60;;;;;;;-140.79;100.00;63287.88;5060745;28;20036;-54
2022/05/10 01:03:03;;;;;;;4.00;2.83;;;;;;;-140.79;100.00;63287.88;5062160;28;20059;-53
2022/05/10 01:05:39;;;;;;;3.88;2.60;;;;;;;-140.79;100.00;63287.88;5041911;28;20043;-52
2022/05/10 01:08:21;;;;;;;4.88;3.28;;;;;;;-140.79;100.00;63287.88;5058548;28;20031;-52
2022/05/10 01:10:52;;;;;;;4.22;2.90;;;;;;;-140.79;100.00;63287.88;5062084;28;20273;-54
2022/05/10 01:13:33;;;;;;;4.47;3.15;;;;;;;-140.79;100.00;63287.88;5041784;28;20407;-52
2022/05/10 01:16:16;;;;;;;3.75;2.65;;;;;;;-140.79;100.00;63287.88;5045381;28;20871;-52
2022/05/10 01:18:41;;;;;;;3.67;2.75;;;;;;;-140.79;100.00;63287.88;5045233;28;20028;-54
2022/05/10 01:21:28;;;;;;;4.53;2.60;;;;;;;-140.79;100.00;63287.88;5045547;28;20036;-52
2022/05/10 01:23:58;;;;;;;3.17;2.25;;;;;;;-140.79;100.00;63287.88;5062637;28;20479;-52
2022/05/10 01:26:43;;;;;;;3.67;2.42;;;;;;;-140.79;100.00;63287.88;5038616;28;20056;-53
2022/05/10 01:29:12;;;;;;;4.50;3.13;;;;;;;-140.79;100.00;63287.88;5048661;28;20024;-55
2022/05/10 01:33:29;;;;;;;3.17;2.47;;;;;;;-140.79;100.00;63287.88;5060134;28;20020;-55
2022/05/10 01:34:37;;;;;;;3.85;2.80;;;;;;;-140.79;100.00;63287.88;5062382;28;20028;-54
2022/05/10 01:37:02;;;;;;;5.43;2.70;;;;;;;-140.79;100.00;63287.88;5042794;28;20515;-55
2022/05/10 01:39:40;;;;;;;6.68;2.92;;;;;;;-140.79;100.00;63287.88;5039504;28;20792;-54
2022/05/10 01:42:21;;;;;;;3.47;2.50;;;;;;;-140.79;100.00;63287.88;5025198;28;20025;-55
2022/05/10 01:44:53;;;;;;;3.83;2.85;;;;;;;-140.79;100.00;63287.88;5059072;28;20273;-53
2022/05/10 01:47:38;;;;;;;3.72;2.50;;;;;;;-140.79;100.00;63287.88;5058852;28;20110;-54
2022/05/10 01:50:29;;;;;;;3.35;2.53;;;;;;;-140.79;100.00;63287.88;5043218;28;20020;-52
2022/05/10 01:53:07;;;;;;;4.00;2.85;;;;;;;-140.79;100.00;63287.88;5062806;28;20032;-54
2022/05/10 01:55:34;;;;;;;4.28;2.60;;;;;;;-140.79;100.00;63287.88;5047389;28;20024;-53
2022/05/10 01:58:03;;;;;;;3.25;2.47;;;;;;;-140.79;100.00;63287.88;5062470;28;20027;-54
2022/05/10 02:00:29;;;;;;;3.80;2.30;;;;;;;-140.79;100.00;63287.88;5040667;28;20495;-53
2022/05/10 02:03:00;;;;;;;3.35;2.53;;;;;;;-140.79;100.00;63287.88;5064093;28;20050;-54
2022/05/10 02:05:31;;;;;;;3.78;2.40;;;;;;;-140.79;100.00;63287.88;5044555;28;20020;-54
2022/05/10 02:08:00;;;;;;;4.25;2.53;;;;;;;-140.79;100.00;63287.88;5058072;28;20107;-54
2022/05/10 02:10:30;;;;;;;4.85;2.97;;;;;;;-140.79;100.00;63287.88;5064098;28;20568;-55
2022/05/10 02:13:03;;;;;;;4.70;2.50;;;;;;;-140.79;100.00;63287.88;5026338;28;20021;-52
2022/05/10 02:15:52;;;;;;;3.95;2.33;;;;;;;-140.79;100.00;63287.88;5041548;28;20029;-52
2022/05/10 02:18:23;;;;;;;3.10;2.27;;;;;;;-140.79;100.00;63287.88;5039768;28;20494;-53
2022/05/10 02:20:52;;;;;;;3.45;2.55;;;;;;;-140.79;100.00;63287.88;5038568;28;20274;-53
2022/05/10 02:23:25;;;;;;;3.38;2.00;;;;;;;-140.79;100.00;63287.88;5062638;28;20107;-54
2022/05/10 02:26:15;;;;;;;3.53;2.42;;;;;;;-140.79;100.00;63287.88;5059105;28;20036;-54
2022/05/10 02:28:40;;;;;;;3.10;2.40;;;;;;;-140.79;100.00;63287.88;5044719;28;20048;-53
2022/05/10 02:31:27;;;;;;;3.63;2.20;;;;;;;-140.79;100.00;63287.88;5062768;28;20024;-52
2022/05/10 02:33:53;;;;;;;4.05;2.40;;;;;;;-140.79;100.00;63287.88;5044151;28;20056;-52
2022/05/10 02:36:18;;;;;;;2.70;2.10;;;;;;;-140.79;100.00;63287.88;5027065;28;20029;-53
2022/05/10 02:38:44;;;;;;;2.60;2.17;;;;;;;-140.79;100.00;63287.88;5059276;28;20032;-53
2022/05/10 02:41:15;;;;;;;3.33;2.40;;;;;;;-140.79;100.00;63287.88;5041562;28;20415;-53
2022/05/10 02:43:58;;;;;;;3.33;2.33;;;;;;;-140.79;100.00;63287.88;5059934;28;20036;-55
2022/05/10 02:46:24;;;;;;;3.15;2.20;;;;;;;-140.79;100.00;63287.88;5061651;28;20063;-53
2022/05/10 02:48:49;;;;;;;2.92;1.92;;;;;;;-140.79;100.00;63287.88;5061097;28;20104;-55
2022/05/10 02:51:15;;;;;;;2.90;2.35;;;;;;;-140.79;100.00;63287.88;5037842;28;20813;-56
2022/05/10 02:53:41;;;;;;;3.47;2.03;;;;;;;-140.79;100.00;63287.88;5058905;28;20027;-54
2022/05/10 02:56:09;;;;;;;3.17;2.22;;;;;;;-140.79;100.00;63287.88;5039557;28;20055;-54
2022/05/10 02:58:58;;;;;;;4.00;2.22;;;;;;;-140.79;100.00;63287.88;5056940;28;20026;-54
2022/05/10 03:01:51;;;;;;;3.78;2.13;;;;;;;-140.79;100.00;63287.88;5033958;28;20036;-51
2022/05/10 03:04:16;;;;;;;3.78;2.47;;;;;;;-140.79;100.00;63287.88;5059766;28;20120;-52
2022/05/10 03:06:43;;;;;;;4.25;2.35;;;;;;;-140.79;100.00;63287.88;5061054;28;20025;-51
2022/05/10 03:09:08;;;;;;;3.20;2.33;;;;;;;-140.79;100.00;63287.88;5059334;28;20058;-51
2022/05/10 03:11:35;;;;;;;3.30;2.20;;;;;;;-140.79;100.00;63287.88;5057875;28;20396;-53
2022/05/10 03:14:00;;;;;;;3.33;2.10;;;;;;;-140.79;100.00;63287.88;5061247;28;20441;-53
2022/05/10 03:16:26;;;;;;;3.00;2.10;;;;;;;-140.79;100.00;63287.88;5041241;28;20024;-54
2022/05/10 03:18:52;;;;;;;3.33;2.50;;;;;;;-140.79;100.00;63287.88;5056925;28;20033;-53
2022/05/10 03:21:18;;;;;;;3.08;2.30;;;;;;;-140.79;100.00;63287.88;5055660;28;20510;-52
2022/05/10 03:23:43;;;;;;;3.00;2.05;;;;;;;-140.79;100.00;63287.88;5060860;28;20032;-52
2022/05/10 03:26:13;;;;;;;2.97;2.20;;;;;;;-140.79;100.00;63287.88;5056058;28;20466;-54
2022/05/10 03:28:38;;;;;;;3.22;2.33;;;;;;;-140.79;100.00;63287.88;5044784;28;20025;-51
2022/05/10 03:31:05;;;;;;;3.17;2.17;;;;;;;-140.79;100.00;63287.88;5059246;28;20019;-54
2022/05/10 03:33:30;;;;;;;3.33;2.40;;;;;;;-140.79;100.00;63287.88;5060604;28;20028;-53
2022/05/10 03:35:56;;;;;;;3.10;2.30;;;;;;;-140.79;100.00;63287.88;5058236;28;20090;-54
2022/05/10 03:38:21;;;;;;;3.65;2.40;;;;;;;-140.79;100.00;63287.88;5058215;28;20510;-53
2022/05/10 03:40:47;;;;;;;3.00;2.00;;;;;;;-140.79;100.00;63287.88;5056686;28;20595;-54
2022/05/10 03:43:12;;;;;;;3.10;2.10;;;;;;;-140.79;100.00;63287.88;5059407;28;20009;-53
2022/05/10 03:45:37;;;;;;;2.95;2.13;;;;;;;-140.79;100.00;63287.88;5057535;28;20013;-52
2022/05/10 03:48:03;;;;;;;2.85;2.10;;;;;;;-140.79;100.00;63287.88;5055368;28;20074;-54
2022/05/10 03:50:29;;;;;;;3.13;2.15;;;;;;;-140.79;100.00;63287.88;5057300;28;20021;-53
2022/05/10 03:52:54;;;;;;;2.53;1.92;;;;;;;-140.79;100.00;63287.88;5058411;28;20086;-53
2022/05/10 03:55:22;;;;;;;2.75;2.08;;;;;;;-140.79;100.00;63287.88;5055626;28;20028;-53
2022/05/10 03:57:48;;;;;;;2.72;2.13;;;;;;;-140.79;100.00;63287.88;5059637;28;20028;-53
2022/05/10 04:00:16;;;;;;;4.13;2.40;;;;;;;-140.79;100.00;63287.88;5058968;28;20047;-55
2022/05/10 04:02:42;;;;;;;3.30;2.20;;;;;;;-140.79;100.00;63287.88;5063733;28;20028;-53
2022/05/10 04:05:08;;;;;;;4.15;2.40;;;;;;;-140.79;100.00;63287.88;5064304;28;20508;-54
2022/05/10 04:07:33;;;;;;;5.75;2.22;;;;;;;-140.79;100.00;63287.88;5058372;28;20036;-52
2022/05/10 04:09:59;;;;;;;3.95;2.15;;;;;;;-140.79;100.00;63287.88;5065760;28;20499;-53
2022/05/10 04:12:24;;;;;;;4.18;2.05;;;;;;;-140.79;100.00;63287.88;5063624;28;20037;-54
2022/05/10 04:14:50;;;;;;;3.47;2.45;;;;;;;-140.79;100.00;63287.88;5061380;28;20032;-52
2022/05/10 04:17:15;;;;;;;4.22;2.22;;;;;;;-140.79;100.00;63287.88;5065012;28;20020;-54
2022/05/10 04:19:41;;;;;;;3.90;2.10;;;;;;;-140.79;100.00;63287.88;5059537;28;20024;-53
2022/05/10 04:22:06;;;;;;;5.10;2.17;;;;;;;-140.79;100.00;63287.88;5064425;28;20132;-54
2022/05/10 04:24:31;;;;;;;4.43;2.20;;;;;;;-140.79;100.00;63287.88;5061948;28;20300;-53
2022/05/10 04:26:57;;;;;;;3.95;2.40;;;;;;;-140.79;100.00;63287.88;5066121;28;20052;-53
2022/05/10 04:29:22;;;;;;;4.15;2.20;;;;;;;-140.79;100.00;63287.88;5063271;28;20036;-53
2022/05/10 04:31:48;;;;;;;3.22;2.13;;;;;;;-140.79;100.00;63287.88;5062737;28;20016;-52
2022/05/10 04:34:13;;;;;;;3.03;2.25;;;;;;;-140.79;100.00;63287.88;5062085;28;20256;-53
2022/05/10 04:36:38;;;;;;;5.00;2.28;;;;;;;-140.79;100.00;63287.88;5045951;28;20131;-53
2022/05/10 04:39:04;;;;;;;3.25;2.33;;;;;;;-140.79;100.00;63287.88;5061635;28;20025;-53
2022/05/10 04:41:32;;;;;;;3.33;2.10;;;;;;;-140.79;100.00;63287.88;5062982;28;20032;-53
2022/05/10 04:44:08;;;;;;;4.57;2.38;;;;;;;-140.79;100.00;63287.88;5062108;28;20032;-52
2022/05/10 04:46:37;;;;;;;3.47;2.42;;;;;;;-140.79;100.00;63287.88;5064008;28;20047;-53
2022/05/10 04:49:04;;;;;;;3.30;2.08;;;;;;;-140.79;100.00;63287.88;5060742;28;20487;-53
2022/05/10 04:51:29;;;;;;;5.15;2.22;;;;;;;-140.79;100.00;63287.88;5059439;28;20032;-53
2022/05/10 04:53:55;;;;;;;5.07;2.50;;;;;;;-140.79;100.00;63287.88;5065660;28;20415;-53
2022/05/10 04:56:21;;;;;;;3.45;2.20;;;;;;;-140.79;100.00;63287.88;5062019;28;20495;-53
2022/05/10 04:58:46;;;;;;;3.15;2.17;;;;;;;-140.79;100.00;63287.88;5040555;28;20063;-52
2022/05/10 05:01:13;;;;;;;4.78;2.00;;;;;;;-140.79;100.00;63287.88;5062138;28;20051;-52
2022/05/10 05:03:45;;;;;;;3.90;2.33;;;;;;;-140.79;100.00;63287.88;5058402;28;20035;-52
2022/05/10 05:06:11;;;;;;;3.90;2.10;;;;;;;-140.79;100.00;63287.88;5059000;28;20028;-52
2022/05/10 05:08:36;;;;;;;4.00;2.00;;;;;;;-140.79;100.00;63287.88;5061014;28;20048;-53
2022/05/10 05:11:01;;;;;;;5.95;2.10;;;;;;;-140.79;100.00;63287.88;5060084;28;20505;-53
2022/05/10 05:13:27;;;;;;;4.97;2.20;;;;;;;-140.79;100.00;63287.88;5061999;28;20419;-52
2022/05/10 05:15:53;;;;;;;4.32;2.33;;;;;;;-140.79;100.00;63287.88;5061917;28;20471;-54
2022/05/10 05:18:18;;;;;;;3.53;2.13;;;;;;;-140.79;100.00;63287.88;5058441;28;20131;-53
2022/05/10 05:20:44;;;;;;;3.05;2.15;;;;;;;-140.79;100.00;63287.88;5059815;28;20685;-52
2022/05/10 05:23:10;;;;;;;3.58;2.25;;;;;;;-140.79;100.00;63287.88;5064078;28;20036;-53
2022/05/10 05:25:36;;;;;;;3.30;2.10;;;;;;;-140.79;100.00;63287.88;5064159;28;20047;-52
2022/05/10 05:28:03;;;;;;;3.30;2.13;;;;;;;-140.79;100.00;63287.88;5018445;28;20045;-53
2022/05/10 05:30:28;;;;;;;5.40;2.20;;;;;;;-140.79;100.00;63287.88;5022534;28;20774;-53
2022/05/10 05:32:54;;;;;;;3.45;2.17;;;;;;;-140.79;100.00;63287.88;5022731;28;20022;-51
2022/05/10 05:35:19;;;;;;;3.58;1.98;;;;;;;-140.79;100.00;63287.88;5021560;28;20025;-53
2022/05/10 05:37:44;;;;;;;3.75;2.08;;;;;;;-140.79;100.00;63287.88;5020736;28;20018;-52
2022/05/10 05:40:15;;;;;;;4.82;2.00;;;;;;;-140.79;100.00;63287.88;5020558;28;20087;-52
2022/05/10 05:42:40;;;;;;;3.60;1.98;;;;;;;-140.79;100.00;63287.88;5020313;28;20116;-52
2022/05/10 05:45:07;;;;;;;3.22;2.00;;;;;;;-140.79;100.00;63287.88;5019061;28;20113;-53
2022/05/10 05:47:32;;;;;;;4.00;2.42;;;;;;;-140.79;100.00;63287.88;5003169;28;20504;-53
2022/05/10 05:49:57;;;;;;;3.65;1.92;;;;;;;-140.79;100.00;63287.88;5022318;28;20022;-55
2022/05/10 05:52:23;;;;;;;3.47;2.10;;;;;;;-140.79;100.00;63287.88;5024784;28;20034;-52
2022/05/10 05:54:49;;;;;;;3.03;1.85;;;;;;;-140.79;100.00;63287.88;5018984;28;20174;-52
2022/05/10 05:57:15;;;;;;;2.83;1.98;;;;;;;-140.79;100.00;63287.88;5019791;28;20044;-54
2022/05/10 05:59:40;;;;;;;3.20;2.10;;;;;;;-140.79;100.00;63287.88;5017339;28;20041;-52
2022/05/10 06:02:14;;;;;;;3.58;1.80;;;;;;;-140.79;100.00;63287.88;5018652;28;20216;-53
2022/05/10 06:04:39;;;;;;;3.60;2.13;;;;;;;-140.79;100.00;63287.88;5023450;28;20025;-53
2022/05/10 06:07:05;;;;;;;2.95;2.10;;;;;;;-140.79;100.00;63287.88;5020602;28;20024;-53
2022/05/10 06:09:30;;;;;;;3.80;2.35;;;;;;;-140.79;100.00;63287.88;5024450;28;20032;-55
2022/05/10 06:11:56;;;;;;;3.13;2.08;;;;;;;-140.79;100.00;63287.88;5012328;28;20025;-52
2022/05/10 06:14:21;;;;;;;5.13;2.13;;;;;;;-140.79;100.00;63287.88;5018015;28;20037;-52
2022/05/10 06:16:46;;;;;;;5.38;2.10;;;;;;;-140.79;100.00;63287.88;5019789;28;20033;-52
2022/05/10 06:19:12;;;;;;;3.22;1.67;;;;;;;-140.79;100.00;63287.88;5017471;28;20038;-52
2022/05/10 06:21:39;;;;;;;3.33;1.90;;;;;;;-140.79;100.00;63287.88;5018429;28;20029;-52
2022/05/10 06:24:04;;;;;;;3.55;2.17;;;;;;;-140.79;100.00;63287.88;5017719;28;20691;-52
2022/05/10 06:26:30;;;;;;;3.10;2.10;;;;;;;-140.79;100.00;63287.88;5027659;28;20126;-52
2022/05/10 06:28:55;;;;;;;4.18;2.15;;;;;;;-140.79;100.00;63287.88;5043962;28;20020;-53
2022/05/10 06:31:21;;;;;;;3.75;2.00;;;;;;;-140.79;100.00;63287.88;5056149;28;20036;-52
2022/05/10 06:33:46;;;;;;;4.00;1.92;;;;;;;-140.79;100.00;63287.88;5063266;28;20063;-51
2022/05/10 06:36:11;;;;;;;3.00;2.00;;;;;;;-140.79;100.00;63287.88;5042865;28;20027;-53
2022/05/10 06:38:37;;;;;;;3.33;1.98;;;;;;;-140.79;100.00;63287.88;5058575;28;20419;-53
2022/05/10 06:41:04;;;;;;;3.35;2.17;;;;;;;-140.79;100.00;63287.88;5058930;28;20047;-52
2022/05/10 06:43:34;;;;;;;3.85;2.13;;;;;;;-140.79;100.00;63287.88;5059975;28;21089;-53
2022/05/10 06:45:59;;;;;;;2.92;1.98;;;;;;;-140.79;100.00;63287.88;5057686;28;20079;-52
2022/05/10 06:48:25;;;;;;;3.75;2.13;;;;;;;-140.79;100.00;63287.88;5060897;28;20032;-52
2022/05/10 06:50:50;;;;;;;3.25;2.10;;;;;;;-140.79;100.00;63287.88;5054815;28;20032;-52
2022/05/10 06:53:16;;;;;;;4.28;1.73;;;;;;;-140.79;100.00;63287.88;5057574;28;20032;-52
2022/05/10 06:55:41;;;;;;;3.00;1.90;;;;;;;-140.79;100.00;63287.88;5062203;28;20036;-52
2022/05/10 06:58:07;;;;;;;3.70;1.92;;;;;;;-140.79;100.00;63287.88;5058056;28;20020;-52
2022/05/10 07:00:33;;;;;;;3.05;1.98;;;;;;;-140.79;100.00;63287.88;5039465;28;20526;-53
2022/05/10 07:02:59;;;;;;;3.08;2.08;;;;;;;-140.79;100.00;63287.88;5059797;28;20144;-53
2022/05/10 07:05:24;;;;;;;3.03;2.10;;;;;;;-140.79;100.00;63287.88;5060942;28;20467;-52
2022/05/10 07:07:49;;;;;;;3.95;2.35;;;;;;;-140.79;100.00;63287.88;5060242;28;20020;-52
2022/05/10 07:10:16;;;;;;;4.18;1.90;;;;;;;-140.79;100.00;63287.88;5061772;28;20021;-53
2022/05/10 07:12:42;;;;;;;2.33;1.65;;;;;;;-140.79;100.00;63287.88;5060453;28;20081;-53
2022/05/10 07:15:10;;;;;;;3.45;2.05;;;;;;;-140.79;100.00;63287.88;5057924;28;20012;-53
2022/05/10 07:17:38;;;;;;;3.90;2.10;;;;;;;-140.79;100.00;63287.88;5058474;28;20037;-53
2022/05/10 07:20:05;;;;;;;2.92;2.00;;;;;;;-140.79;100.00;63287.88;5058692;28;20067;-52
2022/05/10 07:22:31;;;;;;;4.00;1.98;;;;;;;-140.79;100.00;63287.88;5060180;28;20025;-53
2022/05/10 07:24:56;;;;;;;4.78;1.92;;;;;;;-140.79;100.00;63287.88;5060081;28;20092;-55
2022/05/10 07:27:22;;;;;;;3.97;2.30;;;;;;;-140.79;100.00;63287.88;5051018;28;20051;-53
2022/05/10 07:29:47;;;;;;;6.15;2.15;;;;;;;-140.79;100.00;63287.88;5060635;28;20029;-52
2022/05/10 07:32:14;;;;;;;3.63;2.03;;;;;;;-140.79;100.00;63287.88;5058742;28;20017;-52
2022/05/10 07:34:41;;;;;;;3.58;2.60;;;;;;;-140.79;100.00;63287.88;5061243;28;20028;-54
2022/05/10 07:37:06;;;;;;;2.90;2.10;;;;;;;-140.79;100.00;63287.88;5062111;28;20024;-53
2022/05/10 07:39:32;;;;;;;2.22;1.73;;;;;;;-140.79;100.00;63287.88;5065441;28;20809;-52
2022/05/10 07:41:59;;;;;;;2.70;1.95;;;;;;;-140.79;100.00;63287.88;5065490;28;20503;-53
2022/05/10 07:44:24;;;;;;;3.03;2.00;;;;;;;-140.79;100.00;63287.88;5062211;28;20020;-53
2022/05/10 07:46:50;;;;;;;4.20;1.90;;;;;;;-140.79;100.00;63287.88;5061570;28;20027;-55
2022/05/10 07:49:15;;;;;;;3.17;2.10;;;;;;;-140.79;100.00;63287.88;5062386;28;20037;-53
2022/05/10 07:51:41;;;;;;;3.90;2.17;;;;;;;-140.79;100.00;63287.88;5066799;28;20465;-53
2022/05/10 07:54:06;;;;;;;3.25;1.80;;;;;;;-140.79;100.00;63287.88;5064767;28;20544;-52
2022/05/10 07:56:32;;;;;;;4.82;2.00;;;;;;;-140.79;100.00;63287.88;5041524;28;20017;-52
2022/05/10 07:58:57;;;;;;;4.13;2.10;;;;;;;-140.79;100.00;63287.88;5064375;28;20024;-54
2022/05/10 08:01:24;;;;;;;4.07;2.22;;;;;;;-140.79;100.00;63287.88;5068515;28;20078;-54
2022/05/10 08:03:49;;;;;;;3.80;2.17;;;;;;;-140.79;100.00;63287.88;5066896;28;20024;-54
2022/05/10 08:06:16;;;;;;;2.95;2.00;;;;;;;-140.79;100.00;63287.88;5060838;28;20025;-53
2022/05/10 08:08:41;;;;;;;3.97;1.90;;;;;;;-140.79;100.00;63287.88;5061563;28;20023;-54
2022/05/10 08:11:08;;;;;;;3.42;2.00;;;;;;;-140.79;100.00;63287.88;5066453;28;20048;-53
2022/05/10 08:13:33;;;;;;;2.95;1.90;;;;;;;-140.79;100.00;63287.88;5064690;28;20065;-53
2022/05/10 08:16:00;;;;;;;2.67;1.75;;;;;;;-140.79;100.00;63287.88;5062915;28;20107;-53
2022/05/10 08:18:26;;;;;;;4.05;2.55;;;;;;;-140.79;100.00;63287.88;5058704;28;20808;-53
2022/05/10 08:20:52;;;;;;;3.67;1.55;;;;;;;-140.79;100.00;63287.88;5026982;28;20525;-54
2022/05/10 08:23:21;;;;;;;5.68;1.67;;;;;;;-140.79;100.00;63287.88;5062614;28;20079;-53
2022/05/10 08:25:48;;;;;;;3.95;1.95;;;;;;;-140.79;100.00;63287.88;5041460;28;20122;-52
2022/05/10 08:28:13;;;;;;;4.63;1.80;;;;;;;-140.79;100.00;63287.88;5024809;28;20041;-53
2022/05/10 08:30:44;;;;;;;3.72;2.00;;;;;;;-140.79;100.00;63287.88;5060305;28;20025;-52
2022/05/10 08:33:10;;;;;;;3.85;1.70;;;;;;;-140.79;100.00;63287.88;5061038;28;20510;-53
2022/05/10 08:35:37;;;;;;;4.32;1.90;;;;;;;-140.79;100.00;63287.88;5063993;28;20020;-53
2022/05/10 08:38:03;;;;;;;4.22;1.75;;;;;;;-140.79;100.00;63287.88;5063151;28;20484;-53
2022/05/10 08:40:31;;;;;;;3.90;1.75;;;;;;;-140.79;100.00;63287.88;5065890;28;20097;-53
2022/05/10 08:43:02;;;;;;;4.53;1.75;;;;;;;-140.79;100.00;63287.88;5027260;28;20043;-52
2022/05/10 08:45:27;;;;;;;3.15;1.60;;;;;;;-140.79;100.00;63287.88;5056748;28;20688;-52
2022/05/10 08:47:53;;;;;;;4.90;1.80;;;;;;;-140.79;100.00;63287.88;5025312;28;20028;-53
2022/05/10 08:50:18;;;;;;;2.83;1.60;;;;;;;-140.79;100.00;63287.88;5044776;28;20025;-53
2022/05/10 08:52:45;;;;;;;3.10;1.58;;;;;;;-140.79;100.00;63287.88;5058944;28;20074;-52
2022/05/10 08:55:11;;;;;;;2.80;1.50;;;;;;;-140.79;100.00;63287.88;5062389;28;20548;-53
2022/05/10 08:57:50;;;;;;;2.90;1.80;;;;;;;-140.79;100.00;63287.88;5059770;28;20507;-52
2022/05/10 09:00:24;;;;;;;3.72;1.50;;;;;;;-140.79;100.00;63287.88;5064557;28;20042;-52
2022/05/10 09:02:52;;;;;;;3.25;1.55;;;;;;;-140.79;100.00;63287.88;5059489;28;20021;-56
2022/05/10 09:05:28;;;;;;;2.72;1.70;;;;;;;-140.79;100.00;63287.88;5059171;28;20112;-55
2022/05/10 09:07:56;;;;;;;4.28;2.03;;;;;;;-140.79;100.00;63287.88;5044826;28;20035;-52
2022/05/10 09:10:39;;;;;;;4.30;1.65;;;;;;;-140.79;100.00;63287.88;5064812;28;20021;-54
2022/05/10 09:13:06;;;;;;;2.95;1.50;;;;;;;-140.79;100.00;63287.88;5042683;28;20411;-53
2022/05/10 09:15:36;;;;;;;2.90;1.40;;;;;;;-140.79;100.00;63287.88;5063062;28;20031;-53
2022/05/10 09:18:21;;;;;;;3.15;1.55;;;;;;;-140.79;100.00;63287.88;5058329;28;20119;-52
2022/05/10 09:21:20;;;;;;;4.60;2.55;;;;;;;-140.79;100.00;63287.88;5045345;28;20092;-54
2022/05/10 09:24:07;;;;;;;5.05;1.60;;;;;;;-140.79;100.00;63287.88;5011486;28;20048;-54
2022/05/10 09:26:42;;;;;;;3.55;2.20;;;;;;;-140.79;100.00;63287.88;5052730;28;20045;-51
2022/05/10 09:29:17;;;;;;;4.55;1.73;;;;;;;-140.79;100.00;63287.88;5057630;28;20065;-53
2022/05/10 09:37:23;;;;;;;3.22;1.80;;;;;;;-140.79;100.00;63287.88;5061127;28;20031;-54
2022/05/10 09:40:00;;;;;;;3.22;1.75;;;;;;;-140.79;100.00;63287.88;5060773;28;20123;-53
2022/05/10 09:42:35;;;;;;;2.25;1.65;;;;;;;-140.79;100.00;63287.88;5062298;28;20121;-54
2022/05/10 09:45:11;;;;;;;2.90;1.60;;;;;;;-140.79;100.00;63287.88;5062507;28;20116;-52
2022/05/10 09:47:36;;;;;;;3.20;1.80;;;;;;;-140.79;100.00;63287.88;5057939;28;20112;-55
2022/05/10 09:50:17;;;;;;;3.85;1.77;;;;;;;-140.79;100.00;63287.88;5064554;28;20024;-54
2022/05/10 09:52:43;;;;;;;3.22;1.58;;;;;;;-140.79;100.00;63287.88;5061264;28;20687;-53
2022/05/10 09:55:27;;;;;;;2.03;1.48;;;;;;;-140.79;100.00;63287.88;5062743;28;20111;-54
2022/05/10 09:57:52;;;;;;;2.97;1.77;;;;;;;-140.79;100.00;63287.88;5058627;28;20028;-53
2022/05/10 10:00:18;;;;;;;3.30;1.85;;;;;;;-140.79;100.00;63287.88;5063432;28;20036;-53
2022/05/10 10:02:44;;;;;;;2.60;1.60;;;;;;;-140.79;100.00;63287.88;5028797;28;20519;-54
2022/05/10 10:05:26;;;;;;;3.83;1.70;;;;;;;-140.79;100.00;63287.88;5062757;28;20024;-54
2022/05/10 10:07:56;;;;;;;3.08;1.60;;;;;;;-140.79;100.00;63287.88;5046051;28;20054;-53
2022/05/10 10:10:33;;;;;;;3.22;1.60;;;;;;;-140.79;100.00;63287.88;5062127;28;20039;-53
2022/05/10 10:13:29;;;;;;;2.75;1.50;;;;;;;-140.79;100.00;63287.88;5064138;28;20056;-52
2022/05/10 10:15:54;;;;;;;2.28;1.50;;;;;;;-140.79;100.00;63287.88;5063675;28;20028;-53
2022/05/10 10:18:39;;;;;;;4.13;1.90;;;;;;;-140.79;100.00;63287.88;5028104;28;20036;-52
2022/05/10 10:21:05;;;;;;;5.43;1.77;;;;;;;-140.79;100.00;63287.88;5063599;28;20033;-53
2022/05/10 10:23:34;;;;;;;4.18;1.92;;;;;;;-140.79;100.00;63287.88;5029818;28;20087;-53
2022/05/10 10:26:03;;;;;;;2.80;1.52;;;;;;;-140.79;100.00;63287.88;5046024;28;20049;-54
2022/05/10 10:28:31;;;;;;;;;;;;;;;-140.79;100.00;63287.88;5046253;28;20032;-53
2022/05/10 10:31:00;;;;;;;2.65;1.88;;;;;;;-140.79;100.00;63287.88;5046330;28;19955;-54
2022/05/10 10:33:36;;;;;;;2.97;1.55;;;;;;;-140.79;100.00;63287.88;5045997;28;20032;-53
2022/05/10 10:36:04;;;;;;;2.30;1.65;;;;;;;-140.79;100.00;63287.88;5045701;28;20036;-52
2022/05/10 10:38:56;;;;;;;2.95;1.70;;;;;;;-140.79;100.00;63287.88;5062160;28;20497;-53
2022/05/10 10:41:26;;;;;;;2.75;1.45;;;;;;;-140.79;100.00;63287.88;5062300;28;20102;-52
2022/05/10 10:44:04;;;;;;;2.30;1.30;;;;;;;-140.79;100.00;63287.88;5063701;28;20546;-52
2022/05/10 10:46:36;;;;;;;2.38;1.70;;;;;;;-140.79;100.00;63287.88;5062526;28;20033;-54
2022/05/10 10:49:15;;;;;;;2.53;1.80;;;;;;;-140.79;100.00;63287.88;5062612;28;20411;-52
2022/05/10 10:51:40;;;;;;;4.35;1.88;;;;;;;-140.79;100.00;63287.88;5030189;28;20113;-52
2022/05/10 10:54:09;;;;;;;3.08;1.65;;;;;;;-140.79;100.00;63287.88;5063311;28;20029;-53
2022/05/10 10:56:41;;;;;;;3.13;1.80;;;;;;;-140.79;100.00;63287.88;5044319;28;20044;-54
2022/05/10 10:59:19;;;;;;;4.28;1.60;;;;;;;-140.79;100.00;63287.88;5045339;28;20029;-55
2022/05/10 11:01:56;;;;;;;3.05;1.88;;;;;;;-140.79;100.00;63287.88;5063142;28;20056;-53
2022/05/10 11:04:44;;;;;;;2.10;1.60;;;;;;;-140.79;100.00;63287.88;5063683;28;20021;-54
2022/05/10 11:07:52;;;;;;;3.65;1.85;;;;;;;-140.79;100.00;63287.88;5062807;28;20040;-54
2022/05/10 11:10:56;;;;;;;2.67;1.58;;;;;;;-140.79;100.00;63287.88;5063325;28;20075;-52
2022/05/10 11:13:43;;;;;;;2.55;1.48;;;;;;;-140.79;100.00;63287.88;5041311;28;20067;-56
2022/05/10 11:16:34;;;;;;;3.13;1.50;;;;;;;-140.79;100.00;63287.88;5062620;28;20032;-54
2022/05/10 11:19:24;;;;;;;3.60;1.80;;;;;;;-140.79;100.00;63287.88;5062012;28;20032;-53
2022/05/10 11:21:55;;;;;;;2.28;1.70;;;;;;;-140.79;100.00;63287.88;5048222;28;20036;-54
2022/05/10 11:24:33;;;;;;;2.58;1.60;;;;;;;-140.79;100.00;63287.88;5062695;28;20675;-53
2022/05/10 11:27:17;;;;;;;2.80;1.55;;;;;;;-140.79;100.00;63287.88;5044892;28;20048;-54